Time;durP1;ratioP1;P1;durP2;ratioP2;P2;SDS_P1;SDS_P2;PMS_P1;PMS_P2;Temp;Humidity;BMP_temperature;BMP_pressure;BME280_temperature;BME280_humidity;BME280_pressure;Samples;Min_cycle;Max_cycle;Signal;HPM_P1;HPM_P2
2022/09/23 00:01:54;;;;;;;27.40;17.95;;;;;;;;;;4991413;28;20042;-90
2022/09/23 00:04:20;;;;;;;24.25;17.40;;;;;;;;;;4988559;28;20100;-90
2022/09/23 00:06:46;;;;;;;25.63;17.83;;;;;;;;;;4987368;28;20041;-88
2022/09/23 00:09:12;;;;;;;29.13;18.17;;;;;;;;;;4988298;28;20033;-90
2022/09/23 00:11:38;;;;;;;28.60;18.75;;;;;;;;;;4995528;28;20562;-90
2022/09/23 00:14:04;;;;;;;25.25;18.05;;;;;;;;;;4990548;28;20029;-90
2022/09/23 00:16:33;;;;;;;34.47;18.52;;;;;;;;;;4989855;28;20033;-90
2022/09/23 00:19:00;;;;;;;26.90;18.17;;;;;;;;;;5001617;28;20124;-90
2022/09/23 00:21:26;;;;;;;29.65;17.63;;;;;;;;;;5008135;28;20022;-90
2022/09/23 00:23:52;;;;;;;27.65;18.33;;;;;;;;;;5020528;28;20072;-90
2022/09/23 00:26:19;;;;;;;27.50;18.15;;;;;;;;;;4997816;28;20029;-90
2022/09/23 00:28:45;;;;;;;32.67;18.13;;;;;;;;;;5005252;28;20136;-89
2022/09/23 00:31:13;;;;;;;27.27;18.63;;;;;;;;;;4997941;28;20518;-89
2022/09/23 00:33:39;;;;;;;28.38;19.17;;;;;;;;;;5003592;28;20056;-89
2022/09/23 00:36:06;;;;;;;28.10;18.42;;;;;;;;;;5020578;28;20061;-89
2022/09/23 00:38:35;;;;;;;29.25;18.95;;;;;;;;;;5006858;28;20052;-89
2022/09/23 00:41:01;;;;;;;31.50;19.35;;;;;;;;;;5020196;28;20021;-89
2022/09/23 00:43:44;;;;;;;27.20;18.50;;;;;;;;;;5006999;28;20120;-89
2022/09/23 00:46:12;;;;;;;32.42;19.17;;;;;;;;;;5005991;28;20049;-89
2022/09/23 00:48:40;;;;;;;31.58;19.15;;;;;;;;;;5004294;28;20104;-89
2022/09/23 00:51:08;;;;;;;27.15;18.48;;;;;;;;;;5024133;28;20013;-90
2022/09/23 00:53:35;;;;;;;28.25;18.95;;;;;;;;;;5004092;28;20061;-90
2022/09/23 00:56:02;;;;;;;27.75;18.38;;;;;;;;;;5006884;28;20581;-92
2022/09/23 00:58:31;;;;;;;32.35;18.25;;;;;;;;;;5000537;28;20042;-90
2022/09/23 01:00:59;;;;;;;30.95;19.40;;;;;;;;;;4999545;28;20501;-90
2022/09/23 01:03:25;;;;;;;25.55;18.65;;;;;;;;;;5016318;28;20041;-90
2022/09/23 01:05:51;;;;;;;29.88;19.25;;;;;;;;;;5018193;28;20373;-89
2022/09/23 01:08:18;;;;;;;35.80;20.60;;;;;;;;;;5000829;28;20033;-90
2022/09/23 01:10:44;;;;;;;30.92;20.02;;;;;;;;;;4998853;28;20485;-90
2022/09/23 01:13:16;;;;;;;35.03;20.15;;;;;;;;;;5018933;28;20037;-89
2022/09/23 01:15:54;;;;;;;30.70;18.90;;;;;;;;;;4995930;28;20079;-89
2022/09/23 01:18:47;;;;;;;28.42;18.38;;;;;;;;;;4997810;28;20520;-89
2022/09/23 01:21:19;;;;;;;30.13;18.88;;;;;;;;;;5019557;28;20042;-89
2022/09/23 01:23:51;;;;;;;31.30;19.05;;;;;;;;;;5006748;28;20068;-90
2022/09/23 01:26:36;;;;;;;25.92;18.50;;;;;;;;;;5018579;28;20060;-89
2022/09/23 01:29:02;;;;;;;33.15;17.98;;;;;;;;;;5008414;28;20949;-89
2022/09/23 01:31:41;;;;;;;30.08;19.13;;;;;;;;;;5003886;28;20477;-90
2022/09/23 01:34:16;;;;;;;30.85;18.55;;;;;;;;;;5008141;28;20444;-90
2022/09/23 01:36:47;;;;;;;23.80;17.40;;;;;;;;;;5002625;28;20030;-89
2022/09/23 01:39:23;;;;;;;32.90;19.02;;;;;;;;;;5000165;28;20034;-89
2022/09/23 01:41:50;;;;;;;;;;;;;;;;;;5026005;28;20045;-90
2022/09/23 01:44:22;;;;;;;33.35;17.88;;;;;;;;;;5001758;28;19923;-90
2022/09/23 01:46:53;;;;;;;28.83;18.60;;;;;;;;;;5001820;28;20455;-89
2022/09/23 01:49:22;;;;;;;34.38;18.33;;;;;;;;;;5016983;28;20056;-89
2022/09/23 01:52:09;;;;;;;28.40;18.88;;;;;;;;;;5008456;28;20566;-89
2022/09/23 01:54:40;;;;;;;32.03;19.63;;;;;;;;;;5005507;28;20115;-88
2022/09/23 01:57:13;;;;;;;26.48;17.73;;;;;;;;;;5000711;28;20046;-90
2022/09/23 01:59:44;;;;;;;31.98;19.55;;;;;;;;;;5006424;28;20026;-89
2022/09/23 02:02:30;;;;;;;32.22;18.95;;;;;;;;;;5002919;28;20037;-90
2022/09/23 02:05:02;;;;;;;33.15;17.95;;;;;;;;;;5015581;28;20155;-89
2022/09/23 02:07:35;;;;;;;36.08;21.13;;;;;;;;;;5002063;28;20127;-89
2022/09/23 02:10:06;;;;;;;28.23;18.98;;;;;;;;;;4996186;28;20464;-89
2022/09/23 02:12:37;;;;;;;26.10;18.38;;;;;;;;;;5001184;28;21308;-89
2022/09/23 02:15:05;;;;;;;30.27;17.88;;;;;;;;;;4999813;28;20048;-89
2022/09/23 02:17:38;;;;;;;26.63;18.38;;;;;;;;;;5014747;28;20040;-90
2022/09/23 02:20:06;;;;;;;29.30;17.70;;;;;;;;;;5000925;28;20030;-89
2022/09/23 02:22:38;;;;;;;25.85;19.02;;;;;;;;;;5002217;28;20059;-89
2022/09/23 02:25:05;;;;;;;32.60;18.77;;;;;;;;;;5000458;28;20030;-89
2022/09/23 02:27:39;;;;;;;26.52;18.30;;;;;;;;;;4988019;28;20334;-88
2022/09/23 02:30:09;;;;;;;26.75;17.77;;;;;;;;;;4999846;28;20057;-88
2022/09/23 02:32:38;;;;;;;26.65;19.65;;;;;;;;;;5005427;28;20026;-89
2022/09/23 02:35:21;;;;;;;29.65;18.80;;;;;;;;;;5002248;28;20192;-89
2022/09/23 02:38:06;;;;;;;25.52;17.38;;;;;;;;;;5025893;28;20068;-89
2022/09/23 02:40:37;;;;;;;29.92;17.40;;;;;;;;;;5005636;28;20080;-89
2022/09/23 02:43:03;;;;;;;31.13;18.92;;;;;;;;;;5016371;28;20582;-90
2022/09/23 02:45:29;;;;;;;30.20;17.48;;;;;;;;;;5001530;28;20038;-90
2022/09/23 02:48:05;;;;;;;27.77;17.88;;;;;;;;;;4989886;28;20033;-90
2022/09/23 02:50:32;;;;;;;33.10;18.38;;;;;;;;;;5019395;28;20034;-90
2022/09/23 02:52:58;;;;;;;29.23;18.90;;;;;;;;;;5005262;28;20049;-90
2022/09/23 02:55:25;;;;;;;28.67;18.92;;;;;;;;;;5002065;28;20722;-90
2022/09/23 02:57:52;;;;;;;31.17;19.92;;;;;;;;;;4999479;28;20049;-90
2022/09/23 03:00:18;;;;;;;32.28;18.73;;;;;;;;;;4997030;28;20069;-89
2022/09/23 03:02:59;;;;;;;30.17;18.95;;;;;;;;;;4987421;28;20033;-90
2022/09/23 03:05:29;;;;;;;33.33;19.48;;;;;;;;;;5019027;28;20106;-90
2022/09/23 03:07:58;;;;;;;32.75;19.85;;;;;;;;;;4999476;28;20121;-90
2022/09/23 03:10:47;;;;;;;25.17;17.67;;;;;;;;;;5000769;28;20732;-91
2022/09/23 03:13:21;;;;;;;27.75;18.63;;;;;;;;;;4988808;28;22185;-91
2022/09/23 03:15:56;;;;;;;30.85;18.38;;;;;;;;;;5019796;28;20021;-91
2022/09/23 03:18:31;;;;;;;28.70;18.80;;;;;;;;;;4999704;28;20116;-91
2022/09/23 03:21:02;;;;;;;33.63;19.17;;;;;;;;;;5001452;28;20057;-91
2022/09/23 03:23:34;;;;;;;30.73;18.90;;;;;;;;;;5004357;28;20037;-91
2022/09/23 03:26:04;;;;;;;39.20;19.77;;;;;;;;;;5008193;28;20038;-91
2022/09/23 03:28:31;;;;;;;32.63;20.48;;;;;;;;;;5005130;28;20088;-89
2022/09/23 03:30:59;;;;;;;30.98;19.58;;;;;;;;;;5006869;28;20041;-89
2022/09/23 03:33:28;;;;;;;31.83;20.90;;;;;;;;;;4988863;28;20095;-88
2022/09/23 03:38:44;;;;;;;35.58;20.00;;;;;;;;;;5024346;28;20422;-89
2022/09/23 03:41:11;;;;;;;30.15;20.20;;;;;;;;;;5004353;28;20062;-89
2022/09/23 03:43:38;;;;;;;35.65;21.75;;;;;;;;;;5004466;28;20394;-90
2022/09/23 03:46:05;;;;;;;31.52;20.60;;;;;;;;;;4991028;28;20129;-88
2022/09/23 03:48:31;;;;;;;36.30;21.58;;;;;;;;;;5003434;28;20026;-89
2022/09/23 03:50:59;;;;;;;37.80;20.42;;;;;;;;;;5018793;28;20113;-90
2022/09/23 03:53:25;;;;;;;32.08;20.50;;;;;;;;;;5008490;28;20049;-90
2022/09/23 03:55:51;;;;;;;33.72;21.10;;;;;;;;;;4990427;28;20129;-90
2022/09/23 03:58:17;;;;;;;34.05;20.77;;;;;;;;;;4992300;28;20464;-90
2022/09/23 04:00:44;;;;;;;30.55;20.63;;;;;;;;;;4995646;28;20044;-89
2022/09/23 04:03:10;;;;;;;31.50;19.30;;;;;;;;;;5005503;28;20504;-89
2022/09/23 04:05:36;;;;;;;33.25;21.13;;;;;;;;;;4991534;28;20167;-89
2022/09/23 04:08:02;;;;;;;36.17;20.88;;;;;;;;;;4996656;28;20545;-89
2022/09/23 04:10:28;;;;;;;30.77;20.90;;;;;;;;;;4990776;28;20152;-88
2022/09/23 04:12:54;;;;;;;31.80;20.60;;;;;;;;;;5001489;28;20038;-89
2022/09/23 04:15:20;;;;;;;38.50;20.20;;;;;;;;;;4989364;28;20040;-89
2022/09/23 04:17:46;;;;;;;32.40;20.00;;;;;;;;;;4992739;28;20037;-89
2022/09/23 04:20:12;;;;;;;35.45;21.08;;;;;;;;;;4994318;28;20063;-88
2022/09/23 04:22:38;;;;;;;35.05;21.90;;;;;;;;;;4992685;28;20034;-87
2022/09/23 04:25:05;;;;;;;33.92;20.52;;;;;;;;;;4991501;28;20595;-88
2022/09/23 04:27:30;;;;;;;31.63;20.02;;;;;;;;;;5007504;28;20124;-88
2022/09/23 04:29:57;;;;;;;29.85;19.30;;;;;;;;;;5003110;28;20101;-88
2022/09/23 04:32:23;;;;;;;33.47;19.60;;;;;;;;;;5000131;28;20253;-88
2022/09/23 04:34:50;;;;;;;33.50;19.90;;;;;;;;;;4992634;28;20500;-88
2022/09/23 04:37:16;;;;;;;36.78;19.75;;;;;;;;;;5009273;28;20065;-88
2022/09/23 04:39:42;;;;;;;33.58;20.45;;;;;;;;;;5008337;28;20073;-89
2022/09/23 04:42:15;;;;;;;32.00;20.42;;;;;;;;;;5006226;28;20085;-88
2022/09/23 04:44:41;;;;;;;33.00;20.98;;;;;;;;;;4991289;28;20037;-89
2022/09/23 04:47:07;;;;;;;28.92;20.10;;;;;;;;;;4987945;28;20508;-88
2022/09/23 04:49:33;;;;;;;32.63;21.23;;;;;;;;;;4999138;28;20057;-89
2022/09/23 04:51:59;;;;;;;37.97;20.85;;;;;;;;;;4991561;28;20029;-89
2022/09/23 04:54:25;;;;;;;35.78;20.50;;;;;;;;;;5006622;28;20497;-89
2022/09/23 04:56:51;;;;;;;35.10;20.73;;;;;;;;;;5018754;28;20385;-90
2022/09/23 04:59:17;;;;;;;37.33;21.08;;;;;;;;;;4985177;28;20493;-86
2022/09/23 05:01:45;;;;;;;34.13;19.92;;;;;;;;;;4992483;28;20037;-87
2022/09/23 05:04:14;;;;;;;35.00;19.33;;;;;;;;;;4991775;28;20084;-88
2022/09/23 05:06:43;;;;;;;33.97;18.70;;;;;;;;;;4985561;28;20544;-87
2022/09/23 05:09:09;;;;;;;29.13;18.88;;;;;;;;;;5006837;28;20414;-88
2022/09/23 05:11:35;;;;;;;29.80;19.88;;;;;;;;;;5003785;28;20171;-88
2022/09/23 05:14:01;;;;;;;32.58;19.20;;;;;;;;;;4985440;28;20711;-88
2022/09/23 05:16:28;;;;;;;33.03;19.27;;;;;;;;;;4988218;28;20056;-88
2022/09/23 05:18:54;;;;;;;36.80;19.17;;;;;;;;;;5019958;28;20036;-88
2022/09/23 05:21:22;;;;;;;33.13;20.20;;;;;;;;;;5026483;28;20033;-87
2022/09/23 05:23:48;;;;;;;40.47;18.98;;;;;;;;;;4994383;28;20029;-89
2022/09/23 05:26:15;;;;;;;34.28;19.58;;;;;;;;;;5003965;28;20124;-87
2022/09/23 05:28:41;;;;;;;33.05;19.77;;;;;;;;;;4996770;28;20699;-86
2022/09/23 05:31:11;;;;;;;34.28;19.73;;;;;;;;;;5015374;28;20022;-87
2022/09/23 05:33:38;;;;;;;36.88;18.67;;;;;;;;;;5002013;28;20030;-86
2022/09/23 05:36:04;;;;;;;34.20;19.08;;;;;;;;;;4996975;28;20052;-88
2022/09/23 05:38:31;;;;;;;35.20;18.92;;;;;;;;;;5000615;28;20619;-87
2022/09/23 05:40:58;;;;;;;28.20;17.73;;;;;;;;;;5001590;28;20025;-88
2022/09/23 05:43:24;;;;;;;29.05;18.27;;;;;;;;;;5001978;28;20057;-88
2022/09/23 05:45:50;;;;;;;28.95;16.23;;;;;;;;;;5004605;28;20055;-88
2022/09/23 05:48:17;;;;;;;26.63;17.00;;;;;;;;;;5001659;28;20026;-88
2022/09/23 05:50:52;;;;;;;33.55;18.65;;;;;;;;;;5021146;28;20045;-88
2022/09/23 05:53:18;;;;;;;26.98;16.50;;;;;;;;;;4996710;28;20056;-88
2022/09/23 05:55:44;;;;;;;33.05;16.83;;;;;;;;;;5000189;28;20489;-88
2022/09/23 05:58:14;;;;;;;28.65;16.42;;;;;;;;;;4993895;28;20045;-88
2022/09/23 06:00:41;;;;;;;24.30;16.35;;;;;;;;;;5013544;28;20036;-88
2022/09/23 06:03:13;;;;;;;24.05;14.70;;;;;;;;;;4998998;28;20033;-88
2022/09/23 06:05:39;;;;;;;25.10;15.18;;;;;;;;;;5017442;28;20041;-88
2022/09/23 06:08:06;;;;;;;25.75;15.68;;;;;;;;;;4985195;28;20559;-89
2022/09/23 06:10:36;;;;;;;23.27;14.00;;;;;;;;;;4998647;28;20022;-89
2022/09/23 06:13:02;;;;;;;23.67;14.43;;;;;;;;;;4995583;28;20292;-89
2022/09/23 06:15:28;;;;;;;25.08;14.82;;;;;;;;;;5001364;28;20394;-91
2022/09/23 06:17:54;;;;;;;28.73;16.92;;;;;;;;;;4990767;28;20037;-89
2022/09/23 06:20:20;;;;;;;25.85;13.85;;;;;;;;;;5000749;28;20038;-88
2022/09/23 06:22:46;;;;;;;28.77;16.00;;;;;;;;;;4984346;28;20097;-89
2022/09/23 06:25:12;;;;;;;22.70;13.05;;;;;;;;;;4991276;28;20129;-89
2022/09/23 06:27:38;;;;;;;29.27;14.23;;;;;;;;;;4983941;28;20071;-89
2022/09/23 06:30:05;;;;;;;23.35;12.32;;;;;;;;;;5001611;28;20493;-88
2022/09/23 06:32:31;;;;;;;22.20;13.52;;;;;;;;;;5004265;28;20124;-89
2022/09/23 06:34:57;;;;;;;22.75;13.18;;;;;;;;;;5003929;28;20045;-89
2022/09/23 06:37:23;;;;;;;22.33;13.45;;;;;;;;;;4990980;28;20132;-89
2022/09/23 06:39:49;;;;;;;24.83;13.68;;;;;;;;;;4983173;28;20085;-88
2022/09/23 06:42:16;;;;;;;24.48;14.70;;;;;;;;;;4985030;28;20133;-89
2022/09/23 06:44:42;;;;;;;22.65;14.05;;;;;;;;;;5002103;28;20524;-89
2022/09/23 06:47:08;;;;;;;22.23;12.70;;;;;;;;;;4994340;28;20033;-90
2022/09/23 06:49:35;;;;;;;21.38;14.35;;;;;;;;;;5001948;28;20033;-90
2022/09/23 06:52:01;;;;;;;20.58;13.30;;;;;;;;;;5002042;28;20409;-89
2022/09/23 06:54:27;;;;;;;20.83;13.63;;;;;;;;;;5004764;28;20052;-89
2022/09/23 06:56:54;;;;;;;22.80;12.75;;;;;;;;;;4987684;28;20120;-90
2022/09/23 06:59:20;;;;;;;21.33;13.30;;;;;;;;;;4985345;28;20034;-90
2022/09/23 07:01:47;;;;;;;21.20;13.40;;;;;;;;;;4991687;28;20060;-89
2022/09/23 07:04:13;;;;;;;19.42;12.18;;;;;;;;;;4982137;28;20413;-89
2022/09/23 07:06:39;;;;;;;19.65;12.57;;;;;;;;;;4994731;28;20072;-89
2022/09/23 07:09:06;;;;;;;19.25;12.35;;;;;;;;;;4998519;28;20448;-90
2022/09/23 07:11:42;;;;;;;19.98;12.55;;;;;;;;;;5008837;28;20121;-90
2022/09/23 07:14:08;;;;;;;17.95;11.40;;;;;;;;;;4998506;28;20033;-90
2022/09/23 07:16:34;;;;;;;25.38;11.60;;;;;;;;;;4986678;28;20117;-88
2022/09/23 07:19:00;;;;;;;23.65;12.98;;;;;;;;;;4983600;28;20387;-88
2022/09/23 07:21:26;;;;;;;23.13;12.95;;;;;;;;;;5016838;28;20041;-88
2022/09/23 07:23:54;;;;;;;20.65;13.20;;;;;;;;;;4989824;28;20125;-88
2022/09/23 07:26:21;;;;;;;19.73;13.13;;;;;;;;;;5011026;28;20036;-89
2022/09/23 07:28:47;;;;;;;18.83;12.57;;;;;;;;;;5006519;28;20044;-89
2022/09/23 07:31:14;;;;;;;18.30;11.38;;;;;;;;;;4996356;28;20041;-89
2022/09/23 07:33:44;;;;;;;23.05;12.85;;;;;;;;;;5005749;28;20037;-89
2022/09/23 07:36:11;;;;;;;24.30;12.65;;;;;;;;;;5029397;28;20030;-88
2022/09/23 07:38:37;;;;;;;20.08;12.80;;;;;;;;;;5018349;28;20054;-89
2022/09/23 07:41:05;;;;;;;20.40;13.25;;;;;;;;;;5007704;28;20451;-88
2022/09/23 07:43:31;;;;;;;27.98;12.77;;;;;;;;;;5005401;28;20037;-88
2022/09/23 07:45:58;;;;;;;17.27;12.43;;;;;;;;;;4993807;28;20036;-88
2022/09/23 07:48:25;;;;;;;18.77;12.98;;;;;;;;;;4999955;28;20030;-89
2022/09/23 07:50:51;;;;;;;24.08;12.48;;;;;;;;;;4989435;28;20034;-89
2022/09/23 07:53:24;;;;;;;20.33;12.43;;;;;;;;;;4998603;28;20050;-88
2022/09/23 07:55:58;;;;;;;18.35;12.05;;;;;;;;;;5000697;28;20022;-89
2022/09/23 07:58:25;;;;;;;20.90;11.98;;;;;;;;;;4982251;28;20053;-89
2022/09/23 08:00:52;;;;;;;18.52;11.75;;;;;;;;;;5020784;28;20030;-89
2022/09/23 08:03:18;;;;;;;19.98;11.93;;;;;;;;;;4990546;28;20064;-89
2022/09/23 08:05:45;;;;;;;19.63;11.63;;;;;;;;;;5021042;28;20366;-89
2022/09/23 08:08:12;;;;;;;21.67;10.85;;;;;;;;;;5007098;28;20045;-89
2022/09/23 08:10:39;;;;;;;17.73;11.13;;;;;;;;;;5004272;28;20030;-89
2022/09/23 08:13:05;;;;;;;20.45;10.63;;;;;;;;;;5016311;28;20037;-89
2022/09/23 08:15:31;;;;;;;17.70;11.73;;;;;;;;;;4997979;28;20025;-89
2022/09/23 08:17:58;;;;;;;16.92;11.52;;;;;;;;;;4985488;28;20042;-89
2022/09/23 08:20:43;;;;;;;20.73;12.00;;;;;;;;;;5000364;28;20501;-89
2022/09/23 08:23:09;;;;;;;17.27;11.30;;;;;;;;;;4993729;28;20034;-88
2022/09/23 08:25:35;;;;;;;16.38;11.25;;;;;;;;;;5005667;28;21045;-89
2022/09/23 08:28:02;;;;;;;15.93;11.10;;;;;;;;;;5002775;28;20030;-90
2022/09/23 08:30:28;;;;;;;16.58;11.40;;;;;;;;;;4991597;28;20135;-90
2022/09/23 08:32:54;;;;;;;20.02;11.88;;;;;;;;;;5004056;28;20501;-90
2022/09/23 08:35:19;;;;;;;20.52;11.90;;;;;;;;;;5000201;28;20047;-90
2022/09/23 08:37:46;;;;;;;26.50;12.00;;;;;;;;;;4994217;28;20064;-90
2022/09/23 08:40:12;;;;;;;18.90;11.48;;;;;;;;;;5006141;28;20036;-88
2022/09/23 08:42:40;;;;;;;15.55;10.63;;;;;;;;;;5003115;28;20042;-88
2022/09/23 08:45:11;;;;;;;18.05;10.85;;;;;;;;;;5006425;28;20056;-88
2022/09/23 08:47:55;;;;;;;17.90;10.52;;;;;;;;;;5002166;28;20061;-88
2022/09/23 08:50:26;;;;;;;17.75;11.23;;;;;;;;;;5007267;28;20040;-89
2022/09/23 08:52:57;;;;;;;17.83;10.65;;;;;;;;;;5004349;28;20580;-89
2022/09/23 08:55:28;;;;;;;15.25;9.38;;;;;;;;;;4962805;28;20049;-89
2022/09/23 08:58:02;;;;;;;16.77;9.70;;;;;;;;;;4985293;28;20037;-89
2022/09/23 09:00:32;;;;;;;20.63;10.32;;;;;;;;;;5003360;28;20034;-90
2022/09/23 09:02:58;;;;;;;22.98;9.82;;;;;;;;;;4981199;28;20053;-89
2022/09/23 09:05:26;;;;;;;19.05;10.25;;;;;;;;;;4990291;28;20030;-89
2022/09/23 09:07:53;;;;;;;17.33;9.25;;;;;;;;;;5002257;28;20089;-89
2022/09/23 09:10:22;;;;;;;13.93;9.90;;;;;;;;;;4998422;28;20615;-89
2022/09/23 09:13:00;;;;;;;16.95;9.43;;;;;;;;;;4984875;28;20045;-89
2022/09/23 09:15:27;;;;;;;22.90;11.52;;;;;;;;;;4999162;28;20041;-90
2022/09/23 09:18:01;;;;;;;19.48;9.68;;;;;;;;;;4979008;28;20477;-87
2022/09/23 09:20:57;;;;;;;15.13;9.40;;;;;;;;;;5000674;28;20117;-87
2022/09/23 09:23:31;;;;;;;18.85;10.30;;;;;;;;;;4973864;28;20162;-87
2022/09/23 09:25:58;;;;;;;16.58;10.20;;;;;;;;;;5002423;28;20695;-86
2022/09/23 09:28:29;;;;;;;22.83;10.00;;;;;;;;;;4983552;28;20034;-87
2022/09/23 09:31:14;;;;;;;12.75;9.32;;;;;;;;;;4978611;28;20440;-87
2022/09/23 09:33:46;;;;;;;19.15;9.90;;;;;;;;;;4979135;28;20057;-87
2022/09/23 09:36:18;;;;;;;12.88;9.07;;;;;;;;;;4984537;28;22500;-87
2022/09/23 09:38:44;;;;;;;13.85;9.02;;;;;;;;;;5001380;28;20697;-87
2022/09/23 09:41:13;;;;;;;17.55;8.95;;;;;;;;;;4985848;28;20439;-88
2022/09/23 09:43:40;;;;;;;23.08;8.73;;;;;;;;;;4984308;28;20463;-87
2022/09/23 09:46:28;;;;;;;19.23;9.27;;;;;;;;;;4982425;28;20036;-87
2022/09/23 09:48:54;;;;;;;15.15;8.98;;;;;;;;;;4984242;28;20030;-87
2022/09/23 09:51:21;;;;;;;13.90;8.60;;;;;;;;;;4980529;28;20067;-88
2022/09/23 09:53:50;;;;;;;16.20;8.32;;;;;;;;;;4991042;28;20114;-88
2022/09/23 09:56:17;;;;;;;19.75;9.57;;;;;;;;;;4999764;28;20481;-89
2022/09/23 09:58:48;;;;;;;14.93;8.80;;;;;;;;;;4993724;28;20049;-89
2022/09/23 10:01:24;;;;;;;17.02;9.00;;;;;;;;;;5002516;28;20041;-86
2022/09/23 10:03:52;;;;;;;14.95;8.63;;;;;;;;;;5002730;28;20034;-86
2022/09/23 10:06:20;;;;;;;13.65;8.90;;;;;;;;;;4997481;28;20030;-86
2022/09/23 10:09:01;;;;;;;16.20;8.63;;;;;;;;;;5010833;28;20030;-86
2022/09/23 10:11:32;;;;;;;22.52;9.30;;;;;;;;;;4994582;28;20163;-88
2022/09/23 10:14:06;;;;;;;17.35;8.50;;;;;;;;;;5015197;28;20028;-87
2022/09/23 10:16:33;;;;;;;17.75;9.65;;;;;;;;;;5000483;28;20038;-86
2022/09/23 10:19:00;;;;;;;26.92;9.32;;;;;;;;;;4996492;28;20056;-85
2022/09/23 10:21:33;;;;;;;19.30;9.07;;;;;;;;;;4988830;28;20040;-87
2022/09/23 10:24:01;;;;;;;18.20;9.80;;;;;;;;;;4998404;28;20473;-87
2022/09/23 10:26:40;;;;;;;18.25;9.30;;;;;;;;;;5003269;28;20122;-88
2022/09/23 10:29:33;;;;;;;10.57;8.73;;;;;;;;;;4998161;28;20102;-87
2022/09/23 10:32:18;;;;;;;12.50;8.13;;;;;;;;;;4993340;28;20037;-87
2022/09/23 10:34:45;;;;;;;10.77;7.63;;;;;;;;;;5015301;28;20029;-87
2022/09/23 10:37:17;;;;;;;16.58;8.63;;;;;;;;;;4991889;28;20034;-87
2022/09/23 10:48:00;;;;;;;17.80;7.90;;;;;;;;;;5009684;28;20123;-87
2022/09/23 10:50:37;;;;;;;14.82;8.45;;;;;;;;;;5002370;28;20158;-87
2022/09/23 10:53:36;;;;;;;15.18;8.35;;;;;;;;;;4994704;28;20124;-86
2022/09/23 10:56:19;;;;;;;13.63;8.95;;;;;;;;;;4995712;28;20109;-87
2022/09/23 10:58:54;;;;;;;16.20;8.18;;;;;;;;;;4984163;28;20444;-87
2022/09/23 11:01:29;;;;;;;18.85;9.18;;;;;;;;;;4976550;28;20033;-87
2022/09/23 11:04:06;;;;;;;16.15;8.68;;;;;;;;;;4982095;28;20048;-87
2022/09/23 11:06:44;;;;;;;12.95;7.68;;;;;;;;;;4985480;28;20104;-88
2022/09/23 11:09:10;;;;;;;18.52;9.82;;;;;;;;;;4993463;28;20486;-87
2022/09/23 11:11:57;;;;;;;13.13;8.05;;;;;;;;;;4973451;28;20247;-86
2022/09/23 11:14:29;;;;;;;15.68;9.00;;;;;;;;;;4980435;28;20034;-87
2022/09/23 11:17:15;;;;;;;13.50;8.45;;;;;;;;;;4993337;28;20120;-88
2022/09/23 11:19:49;;;;;;;13.07;8.25;;;;;;;;;;4968989;28;20494;-87
2022/09/23 11:22:22;;;;;;;19.27;8.98;;;;;;;;;;4981894;28;20038;-89
2022/09/23 11:24:59;;;;;;;17.65;9.13;;;;;;;;;;4992773;28;20483;-88
2022/09/23 11:27:37;;;;;;;21.25;10.25;;;;;;;;;;4983532;28;20045;-88
2022/09/23 11:30:08;;;;;;;15.52;9.02;;;;;;;;;;4975371;28;20033;-89
2022/09/23 11:32:40;;;;;;;16.65;9.20;;;;;;;;;;4981495;28;20080;-88
2022/09/23 11:35:12;;;;;;;17.67;9.70;;;;;;;;;;4989867;28;20030;-88
2022/09/23 11:37:42;;;;;;;16.50;9.98;;;;;;;;;;4977397;28;20039;-88
2022/09/23 11:40:14;;;;;;;15.75;9.68;;;;;;;;;;4983438;28;20038;-89
2022/09/23 11:42:51;;;;;;;14.80;9.18;;;;;;;;;;4983833;28;20026;-88
2022/09/23 11:45:21;;;;;;;24.52;10.52;;;;;;;;;;4982645;28;20156;-88
2022/09/23 11:47:54;;;;;;;14.55;9.35;;;;;;;;;;4988349;28;20037;-88
2022/09/23 11:50:26;;;;;;;13.77;9.65;;;;;;;;;;4979442;28;20149;-88
2022/09/23 11:53:12;;;;;;;17.30;10.02;;;;;;;;;;4984663;28;20577;-88
2022/09/23 11:55:38;;;;;;;;;;;;;;;;;;5010556;28;20053;-88
2022/09/23 11:58:09;;;;;;;16.58;9.93;;;;;;;;;;4997948;28;19913;-88
2022/09/23 12:00:37;;;;;;;16.67;9.73;;;;;;;;;;5005910;28;20091;-88
2022/09/23 12:03:23;;;;;;;19.52;10.07;;;;;;;;;;5012793;28;20032;-88
2022/09/23 12:06:12;;;;;;;21.48;10.23;;;;;;;;;;4982035;28;20037;-87
2022/09/23 12:08:38;;;;;;;15.95;9.68;;;;;;;;;;4998295;28;20525;-88
2022/09/23 12:11:23;;;;;;;28.73;11.45;;;;;;;;;;5000691;28;20044;-88
2022/09/23 12:13:52;;;;;;;21.15;11.10;;;;;;;;;;4999265;28;20029;-88
2022/09/23 12:16:37;;;;;;;15.98;10.07;;;;;;;;;;5000081;28;20025;-88
2022/09/23 12:19:06;;;;;;;18.30;10.25;;;;;;;;;;4995598;28;20042;-88
2022/09/23 12:21:36;;;;;;;19.45;10.35;;;;;;;;;;4999417;28;20087;-88
2022/09/23 12:24:05;;;;;;;21.50;10.15;;;;;;;;;;5000698;28;20037;-89
2022/09/23 12:26:32;;;;;;;17.83;9.90;;;;;;;;;;5021529;28;20052;-88
2022/09/23 12:29:02;;;;;;;19.25;11.23;;;;;;;;;;4996930;28;20429;-88
2022/09/23 12:31:29;;;;;;;13.73;9.63;;;;;;;;;;5005825;28;20033;-88
2022/09/23 12:33:57;;;;;;;18.05;9.25;;;;;;;;;;4999832;28;20025;-88
2022/09/23 12:36:25;;;;;;;23.30;9.88;;;;;;;;;;5004174;28;20481;-88
2022/09/23 12:38:52;;;;;;;15.40;9.57;;;;;;;;;;4999898;28;20125;-88
2022/09/23 12:41:21;;;;;;;22.30;10.38;;;;;;;;;;5000527;28;20032;-88
2022/09/23 12:43:54;;;;;;;17.08;10.25;;;;;;;;;;5017284;28;20022;-89
2022/09/23 12:46:20;;;;;;;14.63;10.18;;;;;;;;;;5020686;28;20603;-88
2022/09/23 12:48:57;;;;;;;27.50;10.18;;;;;;;;;;5000705;28;20030;-88
2022/09/23 12:51:24;;;;;;;17.83;9.95;;;;;;;;;;4999925;28;20029;-88
2022/09/23 12:53:54;;;;;;;16.95;10.00;;;;;;;;;;4988364;28;20497;-87
2022/09/23 12:56:32;;;;;;;21.58;10.50;;;;;;;;;;5018704;28;20030;-88
2022/09/23 12:59:18;;;;;;;19.33;10.65;;;;;;;;;;5000527;28;20125;-88
2022/09/23 13:01:44;;;;;;;;;;;;;;;;;;5002510;28;20046;-89
2022/09/23 13:07:15;;;;;;;15.02;9.20;;;;;;;;;;5021490;28;20037;-88
2022/09/23 13:09:44;;;;;;;19.35;10.70;;;;;;;;;;5014165;28;20022;-88
2022/09/23 13:12:17;;;;;;;21.48;11.40;;;;;;;;;;4995007;28;20034;-88
2022/09/23 13:14:44;;;;;;;20.65;11.50;;;;;;;;;;4997614;28;20037;-88
2022/09/23 13:17:22;;;;;;;20.17;10.60;;;;;;;;;;5000219;28;20084;-88
2022/09/23 13:19:57;;;;;;;18.77;11.38;;;;;;;;;;5011486;28;20025;-87
2022/09/23 13:22:43;;;;;;;22.83;11.75;;;;;;;;;;5014788;28;20041;-87
2022/09/23 13:25:16;;;;;;;17.05;10.18;;;;;;;;;;4960619;28;20061;-88
2022/09/23 13:27:46;;;;;;;16.48;10.13;;;;;;;;;;5012077;28;20036;-88
2022/09/23 13:30:15;;;;;;;18.48;10.60;;;;;;;;;;4999329;28;20032;-88
2022/09/23 13:32:47;;;;;;;20.92;10.52;;;;;;;;;;5013215;28;20049;-88
2022/09/23 13:35:13;;;;;;;22.70;10.43;;;;;;;;;;5001991;28;20033;-89
2022/09/23 13:37:45;;;;;;;19.60;10.65;;;;;;;;;;5003496;28;20757;-88
2022/09/23 13:40:25;;;;;;;20.02;10.73;;;;;;;;;;5012352;28;20088;-88
2022/09/23 13:42:56;;;;;;;17.95;10.82;;;;;;;;;;4998445;28;20030;-87
2022/09/23 13:45:23;;;;;;;18.85;11.15;;;;;;;;;;4995632;28;20091;-88
2022/09/23 13:47:50;;;;;;;19.23;11.48;;;;;;;;;;5014681;28;20026;-88
2022/09/23 13:50:19;;;;;;;19.77;11.68;;;;;;;;;;4995116;28;20517;-88
2022/09/23 13:52:46;;;;;;;18.73;11.02;;;;;;;;;;4995414;28;20117;-89
2022/09/23 13:55:30;;;;;;;21.05;11.70;;;;;;;;;;4998441;28;20413;-88
2022/09/23 13:57:57;;;;;;;22.20;12.35;;;;;;;;;;5004914;28;20061;-88
2022/09/23 14:00:24;;;;;;;18.80;11.02;;;;;;;;;;4995740;28;20040;-88
2022/09/23 14:02:54;;;;;;;20.00;11.55;;;;;;;;;;4994056;28;20038;-88
2022/09/23 14:05:25;;;;;;;25.55;12.45;;;;;;;;;;4995523;28;20029;-87
2022/09/23 14:07:52;;;;;;;22.77;13.27;;;;;;;;;;4997265;28;20037;-87
2022/09/23 14:10:20;;;;;;;29.02;14.38;;;;;;;;;;5000150;28;20757;-87
2022/09/23 14:12:47;;;;;;;28.00;15.30;;;;;;;;;;4996086;28;20242;-89
2022/09/23 14:15:14;;;;;;;31.75;15.57;;;;;;;;;;4997074;28;20477;-88
2022/09/23 14:17:45;;;;;;;21.33;14.07;;;;;;;;;;4997780;28;20125;-88
2022/09/23 14:20:16;;;;;;;26.20;13.73;;;;;;;;;;4993281;28;20567;-88
2022/09/23 14:22:42;;;;;;;25.60;13.48;;;;;;;;;;4994870;28;20025;-89
2022/09/23 14:25:14;;;;;;;30.67;13.85;;;;;;;;;;4998905;28;20043;-89
2022/09/23 14:27:42;;;;;;;22.73;12.98;;;;;;;;;;4991993;28;20494;-87
2022/09/23 14:30:14;;;;;;;26.88;13.63;;;;;;;;;;4994032;28;20437;-87
2022/09/23 14:32:41;;;;;;;25.77;14.15;;;;;;;;;;4992044;28;20026;-87
2022/09/23 14:35:27;;;;;;;28.20;15.60;;;;;;;;;;5004129;28;20017;-87
2022/09/23 14:40:40;;;;;;;;;;;;;;;;;;5016757;28;20602;-87
2022/09/23 14:43:14;;;;;;;28.42;13.30;;;;;;;;;;4996329;28;20193;-87
2022/09/23 14:45:43;;;;;;;23.20;14.27;;;;;;;;;;4997485;28;20500;-87
2022/09/23 14:48:14;;;;;;;26.60;14.35;;;;;;;;;;4994426;28;20052;-87
2022/09/23 14:50:48;;;;;;;26.42;14.02;;;;;;;;;;5010273;28;20018;-87
2022/09/23 14:53:17;;;;;;;25.15;15.00;;;;;;;;;;5009110;28;20028;-87
2022/09/23 14:55:44;;;;;;;28.20;14.95;;;;;;;;;;4995636;28;20422;-87